TimeEST,TemperatureF,Dew PointF,Humidity,Sea Level PressureIn,VisibilityMPH,Wind Direction,Wind SpeedMPH,Gust SpeedMPH,PrecipitationIn,Events,Conditions,WindDirDegrees,DateUTC
12:55 AM,60.1,59.2,97,30.11,9.0,NW,3.5,-,N/A,,Clear,320,2012-12-15 05:55:00
1:55 AM,61.5,60.4,96,30.09,10.0,North,4.6,-,N/A,,Clear,360,2012-12-15 06:55:00
2:55 AM,61.0,60.1,97,30.09,9.0,NNW,4.6,-,N/A,,Clear,330,2012-12-15 07:55:00
2:58 AM,60.8,60.8,100,30.09,9.0,NW,3.5,-,N/A,,Clear,320,2012-12-15 07:58:00
3:15 AM,60.8,60.8,100,30.10,8.0,NNW,5.8,-,N/A,,Partly Cloudy,340,2012-12-15 08:15:00
3:17 AM,60.8,60.8,100,30.10,9.0,NNW,5.8,-,N/A,,Partly Cloudy,340,2012-12-15 08:17:00
3:55 AM,61.9,60.6,96,30.10,10.0,NW,4.6,-,N/A,,Partly Cloudy,310,2012-12-15 08:55:00
4:13 AM,60.8,60.8,100,30.11,10.0,NW,5.8,-,N/A,,Partly Cloudy,320,2012-12-15 09:13:00
4:22 AM,60.8,60.8,100,30.11,10.0,NNW,6.9,-,N/A,,Mostly Cloudy,340,2012-12-15 09:22:00
4:55 AM,61.2,60.3,97,30.11,10.0,NW,8.1,-,N/A,,Overcast,310,2012-12-15 09:55:00
5:00 AM,60.8,60.8,100,30.11,9.0,NW,9.2,-,N/A,,Overcast,310,2012-12-15 10:00:00
5:51 AM,60.8,60.8,100,30.10,4.0,NW,4.6,-,N/A,,Overcast,320,2012-12-15 10:51:00
5:55 AM,60.3,59.9,99,30.10,3.0,NW,4.6,-,N/A,,Overcast,320,2012-12-15 10:55:00
5:57 AM,60.8,60.8,100,30.10,2.5,NW,4.6,-,N/A,,Overcast,310,2012-12-15 10:57:00
6:06 AM,60.8,60.8,100,30.11,1.8,NW,5.8,-,N/A,,Overcast,320,2012-12-15 11:06:00
6:31 AM,60.8,60.8,100,30.11,1.2,NW,6.9,-,N/A,,Overcast,320,2012-12-15 11:31:00
6:51 AM,60.8,60.8,100,30.12,1.0,Calm,Calm,-,N/A,,Mist,0,2012-12-15 11:51:00
6:55 AM,60.6,60.3,99,30.12,1.0,NW,3.5,-,N/A,,Mist,320,2012-12-15 11:55:00
6:58 AM,60.8,60.8,100,30.12,0.8,NW,3.5,-,N/A,,Mist,320,2012-12-15 11:58:00
7:49 AM,60.8,60.8,100,30.14,0.2,NW,5.8,-,N/A,Fog,Fog,310,2012-12-15 12:49:00
7:53 AM,60.8,60.8,100,30.14,0.5,NW,5.8,-,N/A,Fog,Fog,320,2012-12-15 12:53:00
7:55 AM,61.3,61.0,99,30.14,0.8,NNW,4.6,-,N/A,,Mist,330,2012-12-15 12:55:00
7:57 AM,60.8,60.8,100,30.14,1.0,NNW,3.5,-,N/A,,Mist,330,2012-12-15 12:57:00
8:00 AM,60.8,60.8,100,30.14,2.0,NNW,3.5,-,N/A,,Overcast,330,2012-12-15 13:00:00
8:02 AM,60.8,60.8,100,30.14,3.0,NW,5.8,-,N/A,,Overcast,320,2012-12-15 13:02:00
8:11 AM,60.8,60.8,100,30.14,2.5,NW,5.8,-,N/A,,Overcast,310,2012-12-15 13:11:00
8:14 AM,60.8,60.8,100,30.14,1.8,NNW,4.6,-,N/A,,Overcast,330,2012-12-15 13:14:00
8:16 AM,60.8,60.8,100,30.14,1.2,NNW,4.6,-,N/A,,Overcast,330,2012-12-15 13:16:00
8:20 AM,60.8,60.8,100,30.14,0.8,NNW,4.6,-,N/A,,Mist,330,2012-12-15 13:20:00
8:22 AM,60.8,60.8,100,30.14,0.8,NW,4.6,-,N/A,,Mist,320,2012-12-15 13:22:00
8:25 AM,60.8,60.8,100,30.14,0.5,NW,4.6,-,N/A,Fog,Fog,320,2012-12-15 13:25:00
8:33 AM,62.6,60.8,94,30.14,0.8,NW,4.6,-,N/A,,Mist,320,2012-12-15 13:33:00
8:35 AM,62.6,60.8,94,30.14,0.8,NW,4.6,-,N/A,,Mist,310,2012-12-15 13:35:00
8:37 AM,62.6,62.6,100,30.14,1.0,NW,4.6,-,N/A,,Mist,310,2012-12-15 13:37:00
8:41 AM,62.6,62.6,100,30.15,1.5,NW,4.6,-,N/A,,Overcast,320,2012-12-15 13:41:00
8:43 AM,62.6,62.6,100,30.15,2.0,NW,5.8,-,N/A,,Overcast,320,2012-12-15 13:43:00
8:45 AM,62.6,62.6,100,30.15,3.0,NW,4.6,-,N/A,,Overcast,320,2012-12-15 13:45:00
8:55 AM,64.0,62.8,96,30.15,10.0,NNW,4.6,-,N/A,,Scattered Clouds,330,2012-12-15 13:55:00
9:55 AM,71.1,65.1,81,30.15,10.0,Variable,3.5,-,N/A,,Clear,0,2012-12-15 14:55:00
10:31 AM,75.2,62.6,65,30.15,10.0,East,4.6,-,N/A,,Light Drizzle,90,2012-12-15 15:31:00
10:36 AM,75.2,62.6,65,30.15,10.0,Variable,4.6,-,N/A,,Clear,0,2012-12-15 15:36:00
10:40 AM,75.2,62.6,65,30.15,10.0,ENE,4.6,-,N/A,,Light Drizzle,70,2012-12-15 15:40:00
10:50 AM,75.2,62.6,65,30.15,10.0,East,5.8,-,N/A,,Clear,90,2012-12-15 15:50:00
10:55 AM,75.4,61.9,63,30.15,10.0,Variable,4.6,-,0.00,,Clear,0,2012-12-15 15:55:00
11:29 AM,75.2,60.8,61,30.15,10.0,Variable,4.6,-,N/A,,Light Drizzle,0,2012-12-15 16:29:00
11:34 AM,77.0,60.8,57,30.15,10.0,NNE,5.8,-,N/A,,Clear,30,2012-12-15 16:34:00
11:55 AM,76.5,61.3,59,30.15,10.0,Variable,5.8,-,0.00,,Clear,0,2012-12-15 16:55:00
12:55 PM,77.2,61.5,58,30.10,10.0,East,6.9,-,N/A,,Clear,80,2012-12-15 17:55:00
1:55 PM,76.3,62.6,62,30.09,10.0,Variable,3.5,-,N/A,,Clear,0,2012-12-15 18:55:00
2:55 PM,75.7,63.0,64,30.09,10.0,NNE,4.6,-,N/A,,Clear,30,2012-12-15 19:55:00
3:55 PM,73.6,63.1,70,30.09,10.0,NNE,6.9,-,N/A,,Clear,30,2012-12-15 20:55:00
4:55 PM,70.2,63.7,80,30.08,10.0,North,3.5,-,N/A,,Clear,10,2012-12-15 21:55:00
5:55 PM,66.4,63.1,89,30.10,10.0,North,4.6,-,N/A,,Clear,10,2012-12-15 22:55:00
6:55 PM,65.1,62.8,92,30.10,10.0,NE,4.6,-,N/A,,Partly Cloudy,40,2012-12-15 23:55:00
7:55 PM,62.4,60.8,94,30.10,10.0,Calm,Calm,-,N/A,,Mostly Cloudy,0,2012-12-16 00:55:00
8:55 PM,61.0,59.7,96,30.10,10.0,Calm,Calm,-,N/A,,Clear,0,2012-12-16 01:55:00
9:55 PM,63.3,61.2,93,30.11,10.0,Calm,Calm,-,N/A,,Partly Cloudy,0,2012-12-16 02:55:00
10:55 PM,63.5,62.4,96,30.08,10.0,SW,3.5,-,N/A,,Partly Cloudy,220,2012-12-16 03:55:00
11:06 PM,64.4,62.6,94,30.09,10.0,Calm,Calm,-,N/A,,Drizzle,0,2012-12-16 04:06:00
11:16 PM,64.4,62.6,94,30.09,10.0,Calm,Calm,-,N/A,,Scattered Clouds,0,2012-12-16 04:16:00
11:55 PM,64.0,63.0,96,30.08,10.0,Calm,Calm,-,0.00,,Partly Cloudy,0,2012-12-16 04:55:00